This is the latest recevied weather packets stored in our database for station/object N4DBJ. If no packets are shown the sender has not sent any weather packets the latest 1 day(s).
| Time | Temp. | Humidity | Pressure | Rain* | Wind** | Luminosity | Snow |
|---|---|---|---|---|---|---|---|
| 1777987618 | 17.22° C | 78% | 1009.2 hPa | 0 mm | 1.79 m/s, 167° | 130 W/m² | - |
| 1777987316 | 16.67° C | 78% | 1009 hPa | 0 mm | 0.45 m/s, 238° | 124 W/m² | - |
| 1777987013 | 16.67° C | 77% | 1009.1 hPa | 0 mm | 1.34 m/s, 167° | 120 W/m² | - |
| 1777986711 | 16.67° C | 78% | 1008.9 hPa | 0 mm | 0.45 m/s, 149° | 117 W/m² | - |
| 1777986409 | 16.67° C | 78% | 1009.1 hPa | 0 mm | 0.89 m/s, 164° | 111 W/m² | - |
| 1777986107 | 16.67° C | 78% | 1008.9 hPa | 0 mm | 0.89 m/s, 192° | 114 W/m² | - |
| 1777985803 | 16.11° C | 79% | 1008.9 hPa | 0 mm | 0.45 m/s, 142° | 113 W/m² | - |
| 1777985501 | 16.11° C | 79% | 1008.9 hPa | 0 mm | 0.89 m/s, 179° | 113 W/m² | - |
| 1777985197 | 16.11° C | 79% | 1008.9 hPa | 0 mm | 1.34 m/s, 172° | 105 W/m² | - |
| 1777984893 | 16.11° C | 80% | 1008.9 hPa | 0 mm | 0.89 m/s, 228° | 101 W/m² | - |
| 1777984589 | 16.11° C | 81% | 1008.6 hPa | 0 mm | 1.34 m/s, 103° | 88 W/m² | - |
| 1777984286 | 15.56° C | 79% | 1008.7 hPa | 0 mm | 1.79 m/s, 183° | 76 W/m² | - |
| 1777983983 | 15.56° C | 79% | 1009 hPa | 0 mm | 1.34 m/s, 175° | 67 W/m² | - |
| 1777983680 | 15.56° C | 80% | 1008.8 hPa | 0 mm | 0.45 m/s, 209° | 63 W/m² | - |
| 1777983377 | 15.56° C | 81% | 1009 hPa | 0 mm | 0.45 m/s, 165° | 55 W/m² | - |
| 1777983074 | 15.56° C | 80% | 1009 hPa | 0 mm | 1.79 m/s, 161° | 51 W/m² | - |
| 1777982770 | 15° C | 82% | 1009 hPa | 0 mm | 0.45 m/s, 179° | 45 W/m² | - |
| 1777982466 | 15° C | 82% | 1008.8 hPa | 0 mm | 0.45 m/s, 130° | 43 W/m² | - |
| 1777982160 | 15° C | 83% | 1008.8 hPa | 0 mm | 0.89 m/s, 153° | 45 W/m² | - |
| 1777981858 | 14.44° C | 87% | 1008.6 hPa | 0 mm | 0.89 m/s, 183° | 43 W/m² | - |
| 1777981555 | 13.89° C | 89% | 1008.6 hPa | 0 mm | 0 m/s | 38 W/m² | - |
| 1777981251 | 13.33° C | 91% | 1008.7 hPa | 0 mm | 0 m/s | 32 W/m² | - |
| 1777980947 | 12.78° C | 94% | 1008.6 hPa | 0 mm | 0.45 m/s, 228° | 29 W/m² | - |
| 1777980644 | 12.22° C | 96% | 1008.5 hPa | 0 mm | 0.45 m/s, 178° | 26 W/m² | - |
| 1777980340 | 12.22° C | 96% | 1008.4 hPa | 0 mm | 0 m/s | 19 W/m² | - |
* Rain latest hour (hover to see other rain measurements)
** Current wind speed in m/s (hover to see current wind gust speed)